Time;durP1;ratioP1;P1;durP2;ratioP2;P2;SDS_P1;SDS_P2;PMS_P1;PMS_P2;Temp;Humidity;BMP_temperature;BMP_pressure;BME280_temperature;BME280_humidity;BME280_pressure;Samples;Min_cycle;Max_cycle;Signal;HPM_P1;HPM_P2
2023/04/07 00:01:22;;;;;;;2.47;1.27;;;18.60;72.60;;;;;;5052537;28;20108;-68
2023/04/07 00:03:48;;;;;;;3.10;1.48;;;18.60;72.80;;;;;;5052595;28;20025;-67
2023/04/07 00:06:14;;;;;;;3.17;1.50;;;18.60;72.80;;;;;;5038951;28;20040;-68
2023/04/07 00:08:40;;;;;;;3.50;1.58;;;18.60;72.80;;;;;;5032349;28;20031;-68
2023/04/07 00:11:07;;;;;;;2.45;1.60;;;18.60;72.90;;;;;;5064321;28;20100;-68
2023/04/07 00:13:33;;;;;;;1.88;1.40;;;18.60;72.90;;;;;;5064315;28;20021;-68
2023/04/07 00:15:58;;;;;;;1.88;1.25;;;18.50;72.90;;;;;;5032634;28;20033;-68
2023/04/07 00:18:24;;;;;;;1.70;1.38;;;18.50;73.10;;;;;;5032503;28;20029;-68
2023/04/07 00:20:50;;;;;;;1.38;1.27;;;18.50;72.90;;;;;;5032567;28;20486;-67
2023/04/07 00:23:15;;;;;;;1.95;1.30;;;18.50;73.00;;;;;;5031938;28;20040;-67
2023/04/07 00:25:41;;;;;;;1.90;1.42;;;18.50;73.00;;;;;;5032463;28;20037;-68
2023/04/07 00:28:06;;;;;;;1.88;1.30;;;18.50;73.00;;;;;;5032311;28;20029;-68
2023/04/07 00:30:32;;;;;;;1.90;1.60;;;18.50;73.10;;;;;;5032298;28;20022;-67
2023/04/07 00:32:58;;;;;;;2.38;1.50;;;18.50;73.10;;;;;;5032430;28;20018;-67
2023/04/07 00:35:23;;;;;;;1.48;1.33;;;18.50;73.20;;;;;;5031984;28;20029;-68
2023/04/07 00:37:49;;;;;;;4.43;1.40;;;18.50;73.20;;;;;;5064134;28;20026;-67
2023/04/07 00:40:15;;;;;;;1.42;1.30;;;18.40;73.30;;;;;;5032282;28;20060;-67
2023/04/07 00:42:40;;;;;;;1.88;1.15;;;18.40;73.40;;;;;;5064006;28;20037;-68
2023/04/07 00:45:07;;;;;;;3.80;1.40;;;18.40;73.30;;;;;;5032185;28;20109;-68
2023/04/07 00:47:32;;;;;;;2.97;1.05;;;18.40;73.40;;;;;;5064068;28;20088;-68
2023/04/07 00:49:58;;;;;;;3.28;1.30;;;18.40;73.50;;;;;;5064225;28;20021;-68
2023/04/07 00:52:27;;;;;;;4.05;1.75;;;18.40;73.50;;;;;;5031589;28;20025;-68
2023/04/07 00:54:54;;;;;;;3.10;1.30;;;18.40;73.40;;;;;;5063372;28;20026;-68
2023/04/07 00:57:21;;;;;;;3.38;1.30;;;18.40;73.40;;;;;;5051162;28;20035;-68
2023/04/07 00:59:48;;;;;;;2.83;1.40;;;18.40;73.50;;;;;;5054755;28;20024;-68
2023/04/07 01:02:16;;;;;;;2.80;1.38;;;18.40;73.40;;;;;;5055074;28;20078;-67
2023/04/07 01:04:53;;;;;;;1.65;1.23;;;18.40;73.50;;;;;;5054713;28;20036;-68
2023/04/07 01:07:23;;;;;;;2.45;1.50;;;18.40;73.50;;;;;;5054334;28;20021;-67
2023/04/07 01:10:02;;;;;;;2.78;1.50;;;18.40;73.60;;;;;;5054869;28;20024;-68
2023/04/07 01:12:46;;;;;;;1.67;1.33;;;18.40;73.50;;;;;;5054512;28;20108;-67
2023/04/07 01:15:11;;;;;;;1.30;1.20;;;18.40;73.50;;;;;;5055710;28;20029;-68
2023/04/07 01:17:41;;;;;;;1.65;1.20;;;18.40;73.50;;;;;;5054537;28;20562;-67
2023/04/07 01:20:07;;;;;;;1.42;1.27;;;18.30;73.50;;;;;;5054486;28;20116;-68
2023/04/07 01:22:41;;;;;;;2.50;1.00;;;18.30;73.50;;;;;;5054574;28;20447;-68
2023/04/07 01:25:44;;;;;;;1.48;1.02;;;18.30;73.50;;;;;;5054627;28;20453;-68
2023/04/07 01:28:25;;;;;;;2.25;1.33;;;18.30;73.50;;;;;;5054094;28;20409;-68
2023/04/07 01:30:50;;;;;;;1.40;1.05;;;18.30;73.50;;;;;;5055715;28;20487;-68
2023/04/07 01:33:16;;;;;;;1.27;0.85;;;18.30;73.60;;;;;;5054237;28;20103;-68
2023/04/07 01:35:42;;;;;;;3.55;1.40;;;18.30;73.60;;;;;;5054181;28;20091;-68
2023/04/07 01:38:07;;;;;;;1.70;1.10;;;18.30;73.60;;;;;;5054042;28;20097;-67
2023/04/07 01:40:34;;;;;;;1.60;1.17;;;18.30;73.70;;;;;;5053980;28;20489;-68
2023/04/07 01:42:59;;;;;;;1.50;1.30;;;18.30;73.70;;;;;;5054342;28;20527;-68
2023/04/07 01:45:25;;;;;;;1.55;1.30;;;18.20;73.70;;;;;;5053878;28;20024;-67
2023/04/07 01:47:51;;;;;;;2.10;1.20;;;18.20;73.70;;;;;;5055101;28;20109;-67
2023/04/07 01:50:17;;;;;;;6.13;1.40;;;18.20;73.80;;;;;;5053844;28;20099;-68
2023/04/07 01:52:42;;;;;;;1.90;1.05;;;18.20;73.80;;;;;;5053701;28;20043;-67
2023/04/07 01:55:09;;;;;;;1.30;1.02;;;18.20;73.80;;;;;;5053887;28;20100;-67
2023/04/07 01:57:34;;;;;;;1.40;1.23;;;18.20;73.90;;;;;;5053567;28;20029;-67
2023/04/07 02:00:00;;;;;;;2.40;1.15;;;18.20;73.80;;;;;;5054991;28;20024;-68
2023/04/07 02:02:26;;;;;;;2.15;1.30;;;18.20;73.90;;;;;;5087175;28;20071;-68
2023/04/07 02:04:55;;;;;;;3.47;1.15;;;18.20;73.90;;;;;;5084741;28;20029;-67
2023/04/07 02:07:43;;;;;;;1.30;1.02;;;18.20;74.00;;;;;;5034687;28;20037;-67
2023/04/07 02:10:11;;;;;;;1.85;1.08;;;18.20;73.90;;;;;;5034551;28;20033;-67
2023/04/07 02:12:37;;;;;;;1.95;1.10;;;18.20;73.90;;;;;;5034577;28;20059;-67
2023/04/07 02:15:02;;;;;;;3.22;1.42;;;18.10;74.00;;;;;;5066788;28;20096;-68
2023/04/07 02:17:28;;;;;;;1.33;1.10;;;18.20;74.00;;;;;;5066782;28;20547;-68
2023/04/07 02:19:54;;;;;;;2.15;1.40;;;18.20;74.10;;;;;;5066624;28;20056;-67
2023/04/07 02:22:19;;;;;;;2.45;1.30;;;18.10;74.10;;;;;;5033230;28;20033;-67
2023/04/07 02:24:45;;;;;;;1.20;0.98;;;18.10;74.10;;;;;;5034525;28;20033;-67
2023/04/07 02:27:11;;;;;;;1.48;1.02;;;18.10;74.10;;;;;;5033187;28;20030;-68
2023/04/07 02:29:36;;;;;;;5.55;1.25;;;18.10;74.10;;;;;;5034497;28;20052;-68
2023/04/07 02:32:02;;;;;;;3.45;1.20;;;18.10;74.10;;;;;;5066461;28;20512;-67
2023/04/07 02:34:28;;;;;;;1.33;1.00;;;18.10;75.10;;;;;;5066060;28;20033;-67
2023/04/07 02:36:53;;;;;;;3.72;1.25;;;18.10;74.10;;;;;;5034473;28;20079;-67
2023/04/07 02:39:19;;;;;;;1.65;1.10;;;18.10;74.20;;;;;;5034190;28;20088;-67
2023/04/07 02:41:45;;;;;;;1.98;1.20;;;18.10;74.20;;;;;;5034293;28;20552;-67
2023/04/07 02:44:10;;;;;;;1.17;1.02;;;18.10;74.30;;;;;;5034263;28;20402;-67
2023/04/07 02:46:36;;;;;;;2.65;1.27;;;18.10;74.40;;;;;;5033787;28;20091;-67
2023/04/07 02:49:01;;;;;;;0.90;0.77;;;18.10;74.20;;;;;;5034027;28;20033;-67
2023/04/07 02:51:27;;;;;;;1.20;1.10;;;18.00;74.20;;;;;;5066020;28;20547;-68
2023/04/07 02:53:53;;;;;;;1.55;1.23;;;18.00;74.20;;;;;;5033893;28;20049;-68
2023/04/07 02:56:19;;;;;;;1.67;1.10;;;18.10;74.20;;;;;;5066007;28;20025;-68
2023/04/07 02:58:44;;;;;;;1.67;1.05;;;18.00;74.20;;;;;;5049465;28;20029;-68
2023/04/07 03:01:10;;;;;;;1.27;1.17;;;18.00;74.20;;;;;;5086105;28;20052;-68
2023/04/07 03:03:36;;;;;;;1.42;0.95;;;18.10;74.30;;;;;;5053516;28;20420;-67
2023/04/07 03:06:01;;;;;;;1.67;0.80;;;18.00;74.30;;;;;;5041897;28;20025;-67
2023/04/07 03:08:27;;;;;;;1.35;1.02;;;18.10;74.20;;;;;;5033546;28;20490;-67
2023/04/07 03:10:52;;;;;;;1.38;1.08;;;18.10;74.20;;;;;;5033756;28;20537;-68
2023/04/07 03:13:19;;;;;;;1.25;0.93;;;18.10;74.30;;;;;;5033776;28;20084;-68
2023/04/07 03:15:46;;;;;;;1.17;0.95;;;18.00;74.20;;;;;;5033546;28;20024;-68
2023/04/07 03:18:11;;;;;;;1.08;0.88;;;18.00;74.20;;;;;;5033396;28;20022;-67
2023/04/07 03:20:37;;;;;;;1.83;1.10;;;18.00;74.30;;;;;;5065481;28;20427;-68
2023/04/07 03:23:03;;;;;;;6.93;1.25;;;18.00;74.30;;;;;;5032513;28;20025;-68
2023/04/07 03:25:28;;;;;;;0.98;0.80;;;18.00;74.30;;;;;;5033421;28;20025;-68
2023/04/07 03:27:54;;;;;;;1.13;0.80;;;18.00;74.30;;;;;;5033271;28;20025;-67
2023/04/07 03:30:20;;;;;;;1.92;1.00;;;18.00;74.40;;;;;;5033343;28;20101;-68
2023/04/07 03:32:46;;;;;;;2.08;1.38;;;18.00;74.40;;;;;;5065031;28;20410;-67
2023/04/07 03:35:11;;;;;;;0.80;0.80;;;17.90;74.40;;;;;;5033200;28;20067;-67
2023/04/07 03:37:37;;;;;;;1.83;1.00;;;18.00;74.50;;;;;;5065188;28;20033;-68
2023/04/07 03:40:03;;;;;;;1.17;0.82;;;18.00;74.50;;;;;;5035453;28;20024;-68
2023/04/07 03:42:28;;;;;;;2.15;1.10;;;18.00;74.60;;;;;;5060230;28;20025;-68
2023/04/07 03:44:54;;;;;;;3.47;0.90;;;18.00;74.50;;;;;;5052293;28;20412;-68
2023/04/07 03:47:21;;;;;;;1.40;0.93;;;18.00;74.50;;;;;;5052082;28;20483;-67
2023/04/07 03:49:47;;;;;;;3.22;1.15;;;18.00;74.40;;;;;;5058386;28;20522;-67
2023/04/07 03:52:12;;;;;;;1.05;0.85;;;18.00;74.40;;;;;;5070933;28;20020;-68
2023/04/07 03:54:45;;;;;;;4.22;1.00;;;18.00;74.50;;;;;;5067846;28;20379;-67
2023/04/07 03:57:10;;;;;;;0.95;0.85;;;18.00;74.50;;;;;;5066992;28;20143;-67
2023/04/07 03:59:36;;;;;;;5.07;0.90;;;17.90;74.50;;;;;;5067040;28;20024;-67
2023/04/07 04:02:02;;;;;;;1.13;1.00;;;17.90;74.60;;;;;;5066711;28;20399;-67
2023/04/07 04:04:27;;;;;;;1.73;1.10;;;17.90;74.50;;;;;;5066644;28;20025;-67
2023/04/07 04:06:53;;;;;;;3.05;1.35;;;17.90;74.50;;;;;;5068114;28;20025;-67
2023/04/07 04:09:19;;;;;;;2.42;1.00;;;17.90;74.50;;;;;;5067963;28;20029;-67
2023/04/07 04:11:45;;;;;;;2.50;1.17;;;17.90;74.50;;;;;;5066555;28;20376;-67
2023/04/07 04:14:11;;;;;;;1.60;1.00;;;17.90;74.50;;;;;;5066444;28;20031;-67
2023/04/07 04:16:36;;;;;;;1.15;1.00;;;17.90;74.50;;;;;;5066991;28;20503;-67
2023/04/07 04:19:02;;;;;;;0.95;0.85;;;17.90;74.70;;;;;;5067756;28;20393;-67
2023/04/07 04:21:28;;;;;;;0.90;0.70;;;17.90;74.60;;;;;;5066621;28;20480;-67
2023/04/07 04:23:53;;;;;;;2.33;1.10;;;17.90;74.70;;;;;;5066404;28;20454;-67
2023/04/07 04:26:20;;;;;;;2.10;0.90;;;17.90;74.80;;;;;;5067482;28;20035;-67
2023/04/07 04:28:45;;;;;;;0.90;0.80;;;17.90;74.70;;;;;;5067820;28;20539;-67
2023/04/07 04:31:11;;;;;;;2.20;1.17;;;17.90;74.70;;;;;;5067545;28;20530;-67
2023/04/07 04:33:37;;;;;;;1.33;0.90;;;17.90;74.70;;;;;;5067131;28;20036;-67
2023/04/07 04:36:03;;;;;;;1.75;1.05;;;17.90;74.70;;;;;;5066135;28;20040;-67
2023/04/07 04:38:29;;;;;;;2.50;1.10;;;17.80;74.70;;;;;;5067441;28;20506;-67
2023/04/07 04:40:54;;;;;;;1.80;0.90;;;17.80;74.70;;;;;;5067270;28;20364;-67
2023/04/07 04:43:20;;;;;;;1.48;1.23;;;17.90;74.70;;;;;;5063938;28;20024;-67
2023/04/07 04:45:46;;;;;;;1.05;0.90;;;17.80;74.70;;;;;;5066935;28;20609;-66
2023/04/07 04:48:12;;;;;;;1.17;0.90;;;17.80;74.70;;;;;;5067382;28;20433;-68
2023/04/07 04:50:37;;;;;;;3.13;1.27;;;17.80;74.80;;;;;;5049951;28;20040;-67
2023/04/07 04:53:03;;;;;;;0.88;0.77;;;17.80;74.80;;;;;;5047106;28;20045;-67
2023/04/07 04:55:28;;;;;;;1.75;0.80;;;17.80;74.70;;;;;;5045362;28;20021;-67
2023/04/07 04:57:54;;;;;;;1.55;0.70;;;17.80;74.80;;;;;;5046876;28;20052;-67
2023/04/07 05:00:20;;;;;;;1.33;1.00;;;17.80;74.90;;;;;;5047116;28;20382;-67
2023/04/07 05:02:46;;;;;;;1.20;1.05;;;17.80;74.80;;;;;;5047073;28;20021;-67
2023/04/07 05:05:12;;;;;;;2.17;0.85;;;17.80;74.90;;;;;;5038797;28;20010;-67
2023/04/07 05:07:39;;;;;;;1.85;0.93;;;17.80;74.90;;;;;;5033631;28;20041;-67
2023/04/07 05:10:06;;;;;;;2.30;0.93;;;17.80;74.90;;;;;;5033677;28;20021;-67
2023/04/07 05:12:32;;;;;;;0.98;0.70;;;17.80;74.90;;;;;;5033272;28;20028;-67
2023/04/07 05:14:57;;;;;;;1.15;0.80;;;17.70;74.80;;;;;;5033501;28;20026;-67
2023/04/07 05:17:23;;;;;;;1.23;0.80;;;17.70;75.80;;;;;;5033405;28;20071;-67
2023/04/07 05:19:49;;;;;;;3.08;0.90;;;17.70;74.80;;;;;;5033513;28;20063;-67
2023/04/07 05:22:15;;;;;;;1.08;0.82;;;17.70;74.80;;;;;;5033664;28;20025;-67
2023/04/07 05:24:40;;;;;;;1.00;0.70;;;17.70;74.90;;;;;;5032066;28;20026;-67
2023/04/07 05:27:06;;;;;;;2.67;0.90;;;17.70;74.90;;;;;;5031862;28;20026;-67
2023/04/07 05:29:32;;;;;;;1.92;1.02;;;17.70;74.90;;;;;;5033436;28;20029;-67
2023/04/07 05:31:57;;;;;;;1.02;0.88;;;17.70;74.80;;;;;;5033197;28;20451;-67
2023/04/07 05:34:23;;;;;;;0.80;0.73;;;17.70;74.90;;;;;;5033145;28;20020;-67
2023/04/07 05:36:49;;;;;;;1.25;0.80;;;17.70;74.90;;;;;;5032999;28;20472;-67
2023/04/07 05:39:14;;;;;;;1.35;0.90;;;17.70;75.00;;;;;;5033158;28;20403;-67
2023/04/07 05:41:41;;;;;;;1.27;0.85;;;17.70;75.00;;;;;;5032669;28;20032;-67
2023/04/07 05:44:06;;;;;;;2.10;0.70;;;17.70;75.00;;;;;;5032978;28;20028;-67
2023/04/07 05:46:32;;;;;;;1.23;1.05;;;17.70;74.90;;;;;;5031674;28;20029;-67
2023/04/07 05:48:58;;;;;;;1.17;0.80;;;17.70;74.80;;;;;;5035241;28;20026;-66
2023/04/07 05:51:23;;;;;;;1.58;0.70;;;17.70;74.60;;;;;;5052810;28;20043;-67
2023/04/07 05:53:49;;;;;;;0.85;0.70;;;17.60;74.40;;;;;;5052051;28;20080;-67
2023/04/07 05:56:14;;;;;;;0.68;0.50;;;17.60;74.30;;;;;;5052399;28;20499;-68
2023/04/07 05:58:40;;;;;;;1.48;0.75;;;17.60;74.30;;;;;;5051154;28;20017;-67
2023/04/07 06:01:06;;;;;;;1.00;0.90;;;17.60;74.20;;;;;;5052382;28;20017;-67
2023/04/07 06:03:31;;;;;;;1.73;0.80;;;17.60;74.10;;;;;;5052448;28;20025;-67
2023/04/07 06:05:57;;;;;;;2.03;0.80;;;17.60;74.00;;;;;;5052207;28;20412;-67
2023/04/07 06:08:23;;;;;;;2.83;0.75;;;17.60;73.90;;;;;;5052429;28;20021;-67
2023/04/07 06:10:48;;;;;;;1.20;0.73;;;17.60;73.70;;;;;;5051986;28;20025;-67
2023/04/07 06:13:14;;;;;;;0.88;0.60;;;17.60;73.50;;;;;;5052058;28;20025;-67
2023/04/07 06:15:40;;;;;;;2.33;0.60;;;17.50;73.00;;;;;;5051877;28;20031;-67
2023/04/07 06:18:05;;;;;;;2.58;0.70;;;17.50;72.70;;;;;;5050276;28;20436;-67
2023/04/07 06:20:31;;;;;;;1.83;0.80;;;17.60;72.50;;;;;;5052085;28;20818;-67
2023/04/07 06:22:57;;;;;;;1.83;0.70;;;17.60;72.40;;;;;;5052054;28;20021;-67
2023/04/07 06:25:22;;;;;;;2.92;0.98;;;17.50;72.20;;;;;;5051747;28;20430;-67
2023/04/07 06:27:48;;;;;;;8.43;1.13;;;17.60;72.10;;;;;;5051059;28;20029;-68
2023/04/07 06:30:14;;;;;;;9.15;1.30;;;17.50;72.30;;;;;;5053348;28;20031;-67
2023/04/07 06:32:39;;;;;;;13.32;1.88;;;17.50;72.80;;;;;;5052107;28;20071;-68
2023/04/07 06:35:06;;;;;;;5.88;1.30;;;17.50;73.10;;;;;;5053157;28;20021;-68
2023/04/07 06:37:31;;;;;;;8.32;1.30;;;17.50;73.20;;;;;;5052603;28;20024;-68
2023/04/07 06:39:57;;;;;;;9.10;1.38;;;17.50;73.20;;;;;;5048928;28;20029;-68
2023/04/07 06:42:22;;;;;;;9.40;1.20;;;17.50;73.20;;;;;;5026671;28;20021;-68
2023/04/07 06:44:48;;;;;;;5.30;1.08;;;17.50;73.10;;;;;;5033004;28;20029;-67
2023/04/07 06:47:14;;;;;;;9.85;1.30;;;17.50;73.00;;;;;;5031923;28;20021;-68
2023/04/07 06:49:40;;;;;;;3.03;1.00;;;17.50;73.00;;;;;;5033261;28;20487;-68
2023/04/07 06:52:05;;;;;;;5.65;1.42;;;17.40;72.90;;;;;;5031886;28;20017;-68
2023/04/07 06:54:31;;;;;;;6.75;1.27;;;17.40;72.80;;;;;;5032815;28;20052;-67
2023/04/07 06:56:57;;;;;;;3.65;1.38;;;17.50;72.80;;;;;;5030436;28;20029;-68
2023/04/07 06:59:22;;;;;;;4.03;1.08;;;17.50;72.80;;;;;;5031881;28;20032;-67
2023/04/07 07:01:48;;;;;;;2.33;1.02;;;17.50;72.80;;;;;;5032864;28;20029;-68
2023/04/07 07:04:14;;;;;;;6.57;1.67;;;17.40;72.60;;;;;;5031973;28;20032;-68
2023/04/07 07:06:40;;;;;;;3.33;1.38;;;17.40;72.50;;;;;;5032699;28;20427;-67
2023/04/07 07:09:05;;;;;;;2.83;1.23;;;17.40;72.50;;;;;;5032790;28;20031;-67
2023/04/07 07:11:31;;;;;;;3.22;1.08;;;17.40;72.40;;;;;;5033096;28;20066;-68
2023/04/07 07:13:57;;;;;;;4.07;1.10;;;17.40;72.40;;;;;;5032536;28;20030;-68
2023/04/07 07:16:25;;;;;;;3.33;1.02;;;17.30;72.20;;;;;;5032607;28;20025;-68
2023/04/07 07:18:51;;;;;;;3.45;1.10;;;17.40;72.20;;;;;;5032786;28;20053;-68
2023/04/07 07:21:19;;;;;;;3.20;1.00;;;17.40;72.20;;;;;;5031533;28;20423;-67
2023/04/07 07:23:45;;;;;;;3.03;1.25;;;17.40;72.00;;;;;;5031322;28;20026;-67
2023/04/07 07:26:11;;;;;;;2.55;1.10;;;17.30;71.90;;;;;;5031393;28;20029;-68
2023/04/07 07:28:36;;;;;;;4.53;1.38;;;17.40;72.00;;;;;;5032476;28;20029;-68
2023/04/07 07:31:09;;;;;;;5.80;1.27;;;17.40;71.90;;;;;;5032436;28;20064;-67
2023/04/07 07:33:35;;;;;;;1.98;0.93;;;17.40;71.80;;;;;;5031437;28;20029;-68
2023/04/07 07:36:01;;;;;;;1.63;1.00;;;17.30;71.70;;;;;;5032197;28;20104;-68
2023/04/07 07:38:26;;;;;;;3.45;1.00;;;17.30;71.70;;;;;;5032314;28;20025;-68
2023/04/07 07:40:52;;;;;;;3.97;1.08;;;17.30;71.60;;;;;;5032377;28;20026;-68
2023/04/07 07:43:18;;;;;;;2.90;0.85;;;17.30;71.50;;;;;;5031093;28;20426;-68
2023/04/07 07:45:43;;;;;;;3.83;1.00;;;17.30;71.50;;;;;;5031323;28;20072;-67
2023/04/07 07:48:09;;;;;;;2.42;1.38;;;17.30;71.50;;;;;;5032503;28;20099;-68
2023/04/07 07:50:35;;;;;;;2.53;0.80;;;17.30;71.50;;;;;;5032236;28;20034;-68
2023/04/07 07:53:00;;;;;;;2.58;0.90;;;17.30;71.40;;;;;;5031787;28;20041;-67
2023/04/07 07:55:26;;;;;;;2.50;1.05;;;17.20;71.30;;;;;;5032459;28;20021;-68
2023/04/07 07:57:52;;;;;;;5.25;1.15;;;17.30;71.40;;;;;;5032123;28;20076;-67
2023/04/07 08:00:17;;;;;;;3.47;1.50;;;17.30;71.30;;;;;;5032113;28;20063;-67
2023/04/07 08:02:43;;;;;;;3.58;1.13;;;17.30;71.30;;;;;;5031086;28;20036;-68
2023/04/07 08:05:09;;;;;;;2.97;1.02;;;17.30;71.30;;;;;;5032121;28;20026;-67
2023/04/07 08:07:35;;;;;;;1.90;0.73;;;17.20;71.20;;;;;;5030898;28;20025;-67
2023/04/07 08:10:01;;;;;;;3.05;0.73;;;17.20;71.10;;;;;;5032075;28;20018;-67
2023/04/07 08:12:26;;;;;;;2.45;1.00;;;17.20;71.00;;;;;;5031990;28;20022;-67
2023/04/07 08:14:52;;;;;;;1.73;0.82;;;17.20;71.00;;;;;;5032023;28;20024;-68
2023/04/07 08:17:17;;;;;;;2.67;0.93;;;17.20;71.00;;;;;;5031980;28;20029;-68
2023/04/07 08:19:43;;;;;;;1.20;0.95;;;17.20;71.00;;;;;;5032178;28;20017;-68
2023/04/07 08:22:09;;;;;;;1.58;0.63;;;17.20;71.00;;;;;;5031636;28;20029;-68
2023/04/07 08:24:34;;;;;;;1.73;1.00;;;17.20;71.00;;;;;;5032167;28;20034;-68
2023/04/07 08:27:00;;;;;;;3.08;0.98;;;17.20;71.00;;;;;;5031855;28;20025;-68
2023/04/07 08:29:26;;;;;;;1.55;0.80;;;17.20;71.00;;;;;;5032006;28;20037;-68
2023/04/07 08:31:51;;;;;;;2.42;0.80;;;17.20;70.90;;;;;;5031890;28;20484;-68
2023/04/07 08:34:19;;;;;;;1.42;0.70;;;17.20;70.90;;;;;;5031920;28;20030;-68
2023/04/07 08:36:45;;;;;;;1.42;0.47;;;17.20;70.90;;;;;;5031624;28;20530;-67
2023/04/07 08:39:11;;;;;;;2.88;0.70;;;17.20;70.90;;;;;;5031740;28;20047;-67
2023/04/07 08:41:38;;;;;;;2.63;0.90;;;17.20;70.90;;;;;;5034118;28;20029;-67
2023/04/07 08:44:05;;;;;;;2.55;0.90;;;17.10;70.90;;;;;;5034203;28;20501;-67
2023/04/07 08:46:30;;;;;;;2.00;1.02;;;17.20;70.90;;;;;;5034279;28;20036;-68
2023/04/07 08:48:56;;;;;;;1.13;0.90;;;17.20;70.90;;;;;;5034191;28;20029;-68
2023/04/07 08:51:30;;;;;;;2.38;0.80;;;17.20;70.80;;;;;;5035263;28;20040;-68
2023/04/07 08:54:22;;;;;;;1.13;0.70;;;17.10;70.70;;;;;;5033873;28;20526;-67
2023/04/07 08:56:48;;;;;;;1.70;0.68;;;17.10;70.70;;;;;;5034195;28;20029;-68
2023/04/07 08:59:14;;;;;;;2.08;1.02;;;17.10;70.70;;;;;;5034113;28;20037;-67
2023/04/07 09:01:40;;;;;;;1.38;0.80;;;17.10;70.70;;;;;;5017772;28;20021;-68
2023/04/07 09:04:08;;;;;;;2.47;0.68;;;17.10;70.70;;;;;;5034901;28;20507;-67
2023/04/07 09:06:34;;;;;;;2.17;0.63;;;17.10;70.70;;;;;;5035130;28;20052;-68
2023/04/07 09:09:00;;;;;;;1.80;0.70;;;17.10;70.70;;;;;;5017635;28;20105;-68
2023/04/07 09:11:26;;;;;;;2.38;0.85;;;17.10;70.80;;;;;;5033823;28;20021;-67
2023/04/07 09:13:52;;;;;;;1.92;0.55;;;17.10;70.70;;;;;;5035004;28;20017;-67
2023/04/07 09:16:17;;;;;;;1.85;0.88;;;17.10;70.70;;;;;;5033832;28;20033;-67
2023/04/07 09:18:43;;;;;;;3.13;0.80;;;17.10;70.70;;;;;;5017099;28;20466;-67
2023/04/07 09:21:10;;;;;;;1.65;0.57;;;17.10;70.70;;;;;;5034973;28;20476;-67
2023/04/07 09:23:40;;;;;;;0.77;0.50;;;17.10;70.70;;;;;;5035029;28;20022;-68
2023/04/07 09:26:20;;;;;;;3.35;0.90;;;17.10;70.70;;;;;;5017724;28;20021;-68
2023/04/07 09:29:07;;;;;;;0.75;0.60;;;17.10;70.70;;;;;;5034808;28;20109;-68
2023/04/07 09:31:54;;;;;;;0.80;0.50;;;17.10;70.70;;;;;;5034457;28;20045;-68
2023/04/07 09:34:31;;;;;;;1.52;0.70;;;17.10;70.70;;;;;;5018073;28;20021;-67
2023/04/07 09:36:57;;;;;;;1.88;0.75;;;17.10;70.70;;;;;;5034666;28;20403;-67
2023/04/07 09:39:23;;;;;;;0.70;0.60;;;17.10;70.70;;;;;;5016927;28;20043;-67
2023/04/07 09:41:49;;;;;;;1.67;0.60;;;17.10;70.70;;;;;;5034298;28;20033;-68
2023/04/07 09:44:14;;;;;;;1.77;0.50;;;17.10;70.70;;;;;;5034439;28;20028;-68
2023/04/07 09:46:57;;;;;;;0.93;0.70;;;17.10;70.70;;;;;;5033302;28;20037;-68
2023/04/07 09:49:26;;;;;;;1.92;0.80;;;17.10;70.70;;;;;;5032737;28;20032;-68
2023/04/07 09:51:59;;;;;;;2.28;0.60;;;17.10;70.70;;;;;;5034253;28;20534;-67
2023/04/07 09:54:38;;;;;;;0.98;0.65;;;17.10;70.70;;;;;;5032736;28;20041;-68
2023/04/07 09:57:05;;;;;;;1.25;0.50;;;17.10;70.70;;;;;;5016924;28;20026;-68
2023/04/07 09:59:31;;;;;;;1.15;0.60;;;17.00;70.60;;;;;;5033173;28;20021;-68
2023/04/07 10:01:57;;;;;;;0.55;0.50;;;17.10;70.70;;;;;;5032756;28;20067;-68
2023/04/07 10:04:23;;;;;;;0.70;0.50;;;17.10;70.70;;;;;;5032842;28;20041;-68
2023/04/07 10:06:49;;;;;;;1.33;0.52;;;17.10;70.70;;;;;;5032940;28;20491;-67
2023/04/07 10:09:16;;;;;;;0.90;0.75;;;17.00;70.70;;;;;;5032640;28;20026;-68
2023/04/07 10:11:42;;;;;;;1.00;0.60;;;17.10;70.80;;;;;;5034109;28;20508;-67
2023/04/07 10:14:11;;;;;;;0.98;0.63;;;17.00;70.60;;;;;;5032724;28;20025;-67
2023/04/07 10:16:37;;;;;;;1.27;0.63;;;17.10;70.70;;;;;;5033553;28;20032;-67
2023/04/07 10:19:03;;;;;;;0.80;0.50;;;17.00;71.60;;;;;;5016355;28;20093;-67
2023/04/07 10:21:28;;;;;;;0.68;0.45;;;17.00;70.60;;;;;;5032739;28;20096;-67
2023/04/07 10:24:18;;;;;;;0.80;0.40;;;17.00;70.60;;;;;;5016269;28;20025;-67
2023/04/07 10:26:46;;;;;;;0.80;0.50;;;17.00;70.70;;;;;;5032765;28;20032;-68
2023/04/07 10:29:11;;;;;;;0.70;0.57;;;17.00;70.70;;;;;;5032347;28;20037;-68
2023/04/07 10:31:37;;;;;;;1.42;0.50;;;17.00;70.60;;;;;;5015715;28;20037;-67
2023/04/07 10:34:04;;;;;;;0.50;0.43;;;17.00;70.70;;;;;;5015669;28;20086;-67
2023/04/07 10:36:30;;;;;;;0.50;0.50;;;17.00;70.70;;;;;;5032194;28;20063;-68
2023/04/07 10:39:08;;;;;;;1.02;0.68;;;17.00;70.70;;;;;;5032504;28;20526;-67
2023/04/07 10:41:43;;;;;;;1.75;0.45;;;17.00;70.70;;;;;;5033276;28;20026;-68
2023/04/07 10:44:09;;;;;;;0.63;0.40;;;17.00;70.70;;;;;;5033137;28;20120;-68
2023/04/07 10:46:44;;;;;;;1.15;0.60;;;17.00;70.70;;;;;;5031971;28;20076;-68
2023/04/07 10:49:10;;;;;;;0.68;0.40;;;17.00;70.70;;;;;;5033088;28;20112;-67
2023/04/07 10:51:36;;;;;;;1.13;0.50;;;17.00;70.70;;;;;;5015759;28;20029;-68
2023/04/07 10:54:15;;;;;;;0.82;0.65;;;17.00;70.70;;;;;;5031775;28;20046;-68
2023/04/07 10:57:03;;;;;;;0.63;0.47;;;17.00;70.70;;;;;;5031867;28;20033;-67
2023/04/07 10:59:29;;;;;;;1.27;0.40;;;17.00;70.70;;;;;;5032873;28;20099;-68
2023/04/07 11:02:13;;;;;;;1.02;0.50;;;17.00;70.70;;;;;;5032750;28;20087;-68
2023/04/07 11:04:42;;;;;;;0.80;0.45;;;17.00;70.70;;;;;;5033020;28;20033;-67
2023/04/07 11:07:08;;;;;;;0.80;0.60;;;17.00;70.70;;;;;;5032794;28;20025;-67
2023/04/07 11:09:34;;;;;;;1.02;0.50;;;17.00;70.70;;;;;;5015422;28;20014;-67
2023/04/07 11:11:59;;;;;;;0.70;0.50;;;17.00;70.70;;;;;;5031849;28;20396;-68
2023/04/07 11:14:29;;;;;;;0.50;0.30;;;17.00;70.70;;;;;;5032345;28;20021;-67
2023/04/07 11:16:55;;;;;;;1.13;0.43;;;17.00;70.70;;;;;;5015498;28;20496;-67
2023/04/07 11:19:21;;;;;;;0.98;0.55;;;17.00;70.70;;;;;;5032588;28;20036;-67
2023/04/07 11:21:47;;;;;;;1.10;0.50;;;17.00;70.80;;;;;;5031573;28;20500;-68
2023/04/07 11:24:36;;;;;;;2.05;0.65;;;17.00;70.70;;;;;;5032571;28;20025;-67
2023/04/07 11:27:02;;;;;;;1.92;0.47;;;17.00;70.70;;;;;;5015624;28;20063;-67
2023/04/07 11:29:31;;;;;;;1.00;0.60;;;17.00;70.70;;;;;;5031271;28;20484;-68
2023/04/07 11:32:00;;;;;;;0.80;0.30;;;17.00;70.70;;;;;;5031486;28;20029;-68
2023/04/07 11:34:30;;;;;;;1.23;0.43;;;17.00;70.70;;;;;;5032184;28;20032;-67
2023/04/07 11:36:58;;;;;;;0.55;0.40;;;17.00;70.70;;;;;;5031439;28;20013;-68
2023/04/07 11:39:30;;;;;;;0.47;0.47;;;17.00;70.70;;;;;;5031281;28;20100;-68
2023/04/07 11:41:55;;;;;;;0.63;0.40;;;17.00;70.70;;;;;;5015553;28;20025;-68
2023/04/07 11:44:21;;;;;;;1.40;0.30;;;17.00;70.70;;;;;;5032043;28;20022;-67
2023/04/07 11:47:00;;;;;;;0.45;0.45;;;17.00;70.70;;;;;;5031110;28;20039;-68
2023/04/07 11:49:27;;;;;;;1.02;0.50;;;17.00;70.70;;;;;;5030986;28;20388;-67
2023/04/07 11:52:05;;;;;;;0.82;0.60;;;17.00;70.70;;;;;;5032358;28;20018;-67
2023/04/07 11:54:41;;;;;;;0.30;0.30;;;17.00;70.70;;;;;;5031792;28;20060;-67
2023/04/07 11:57:09;;;;;;;0.85;0.43;;;17.00;70.70;;;;;;5032360;28;20022;-68
2023/04/07 11:59:34;;;;;;;0.55;0.40;;;17.00;70.80;;;;;;5014802;28;20029;-68
2023/04/07 12:02:00;;;;;;;1.17;0.40;;;17.00;70.80;;;;;;5032135;28;20447;-68
2023/04/07 12:04:26;;;;;;;1.40;0.60;;;17.00;70.70;;;;;;5030857;28;20029;-67
2023/04/07 12:06:52;;;;;;;1.20;0.47;;;17.00;70.80;;;;;;5031131;28;20033;-67
2023/04/07 12:09:46;;;;;;;0.98;0.32;;;17.00;70.80;;;;;;5032063;28;20496;-67
2023/04/07 12:12:12;;;;;;;0.95;0.50;;;17.00;70.70;;;;;;5032296;28;20033;-68
2023/04/07 12:14:38;;;;;;;0.88;0.60;;;17.00;70.70;;;;;;5032417;28;20032;-67
2023/04/07 12:17:04;;;;;;;0.80;0.50;;;17.00;70.80;;;;;;5036051;28;20021;-67
2023/04/07 12:19:34;;;;;;;1.38;0.40;;;17.00;70.80;;;;;;5034811;28;20522;-68
2023/04/07 12:22:00;;;;;;;0.73;0.40;;;17.00;70.80;;;;;;5036042;28;20022;-68
2023/04/07 12:24:26;;;;;;;0.60;0.40;;;17.00;70.80;;;;;;5035924;28;20033;-67
2023/04/07 12:26:52;;;;;;;1.10;0.60;;;17.10;70.80;;;;;;5036070;28;20029;-67
2023/04/07 12:29:18;;;;;;;1.02;0.50;;;17.00;70.80;;;;;;5035547;28;20430;-67
2023/04/07 12:31:44;;;;;;;0.50;0.32;;;17.00;70.80;;;;;;5035740;28;20029;-67
2023/04/07 12:34:10;;;;;;;0.50;0.40;;;17.00;70.80;;;;;;5035895;28;20549;-67
2023/04/07 12:36:36;;;;;;;0.35;0.35;;;17.00;70.80;;;;;;5035525;28;20025;-68
2023/04/07 12:39:01;;;;;;;0.55;0.40;;;17.00;70.80;;;;;;5035696;28;20025;-67
2023/04/07 12:41:27;;;;;;;0.43;0.40;;;17.00;70.80;;;;;;5035245;28;20034;-68
2023/04/07 12:43:53;;;;;;;0.65;0.30;;;17.00;70.80;;;;;;5035451;28;20104;-68
2023/04/07 12:46:18;;;;;;;0.57;0.40;;;17.00;70.80;;;;;;5035698;28;20033;-68
2023/04/07 12:48:44;;;;;;;0.50;0.40;;;17.00;70.90;;;;;;5035473;28;20061;-68